createdAt,value
2022-12-24T00:02:22.331Z,5.70
2022-12-24T00:05:10.960Z,8.02
2022-12-24T00:07:59.924Z,8.60
2022-12-24T00:10:52.443Z,5.43
2022-12-24T00:13:40.288Z,8.50
2022-12-24T00:16:28.351Z,7.32
2022-12-24T00:19:16.273Z,6.45
2022-12-24T00:22:04.277Z,6.22
2022-12-24T00:24:53.546Z,7.00
2022-12-24T00:27:41.148Z,7.22
2022-12-24T00:30:28.670Z,7.55
2022-12-24T00:33:22.453Z,7.70
2022-12-24T00:36:12.071Z,9.45
2022-12-24T00:38:59.767Z,8.20
2022-12-24T00:41:48.606Z,5.55
2022-12-24T00:44:36.134Z,6.47
2022-12-24T00:47:23.519Z,6.43
2022-12-24T00:50:11.303Z,6.30
2022-12-24T00:52:59.133Z,9.77
2022-12-24T00:55:46.845Z,10.02
2022-12-24T00:58:36.036Z,6.63
2022-12-24T01:01:23.890Z,7.53
2022-12-24T01:04:28.762Z,6.25
2022-12-24T01:07:16.327Z,7.37
2022-12-24T01:10:04.151Z,7.57
2022-12-24T01:12:51.774Z,7.70
2022-12-24T01:15:40.720Z,6.88
2022-12-24T01:18:28.440Z,9.07
2022-12-24T01:21:18.495Z,6.93
2022-12-24T01:24:09.337Z,6.85
2022-12-24T01:26:56.913Z,14.00
2022-12-24T01:29:44.324Z,9.95
2022-12-24T01:32:33.225Z,10.38
2022-12-24T01:35:20.835Z,10.00
2022-12-24T01:38:08.716Z,7.85
2022-12-24T01:41:13.778Z,7.68
2022-12-24T01:44:16.121Z,8.50
2022-12-24T01:47:09.779Z,11.10
2022-12-24T01:50:02.256Z,6.40
2022-12-24T01:52:49.696Z,5.88
2022-12-24T01:55:37.164Z,9.68
2022-12-24T01:58:27.570Z,7.40
2022-12-24T02:01:14.931Z,10.65
2022-12-24T02:04:07.136Z,10.10
2022-12-24T02:06:55.795Z,10.15
2022-12-24T02:09:43.945Z,8.48
2022-12-24T02:12:36.515Z,11.02
2022-12-24T02:15:24.598Z,9.10
2022-12-24T02:18:20.479Z,9.13
2022-12-24T02:21:31.207Z,11.82
2022-12-24T02:24:37.738Z,10.25
2022-12-24T02:27:34.689Z,10.35
2022-12-24T02:30:25.452Z,18.20
2022-12-24T02:33:24.864Z,11.23
2022-12-24T02:36:18.618Z,13.55
2022-12-24T02:39:11.330Z,11.07
2022-12-24T02:42:09.872Z,10.38
2022-12-24T02:45:01.317Z,16.63
2022-12-24T02:47:52.431Z,16.17
2022-12-24T02:50:39.829Z,17.25
2022-12-24T02:53:27.208Z,13.05
2022-12-24T02:56:26.049Z,14.75
2022-12-24T02:59:31.811Z,12.18
2022-12-24T03:02:28.234Z,15.07
2022-12-24T03:05:26.841Z,14.13
2022-12-24T03:08:18.597Z,11.38
2022-12-24T03:11:10.729Z,10.38
2022-12-24T03:14:00.479Z,11.70
2022-12-24T03:16:48.272Z,16.13
2022-12-24T03:19:36.638Z,14.50
2022-12-24T03:22:28.451Z,15.02
2022-12-24T03:25:16.761Z,14.13
2022-12-24T03:28:07.933Z,13.70
2022-12-24T03:30:55.668Z,12.90
2022-12-24T03:33:43.338Z,14.85
2022-12-24T03:36:31.368Z,11.20
2022-12-24T03:39:20.161Z,13.05
2022-12-24T03:42:07.748Z,11.48
2022-12-24T03:44:55.005Z,11.13
2022-12-24T03:47:42.557Z,18.23
2022-12-24T03:50:30.186Z,14.30
2022-12-24T03:53:17.584Z,14.15
2022-12-24T03:56:06.847Z,15.75
2022-12-24T03:58:54.877Z,15.33
2022-12-24T04:01:42.780Z,12.88
2022-12-24T04:04:30.646Z,13.02
2022-12-24T04:07:18.255Z,13.05
2022-12-24T04:10:06.525Z,16.13
2022-12-24T04:12:55.808Z,15.33
2022-12-24T04:15:43.228Z,13.90
2022-12-24T04:18:30.818Z,19.65
2022-12-24T04:21:18.171Z,12.40
2022-12-24T04:24:06.344Z,14.93
2022-12-24T04:26:53.649Z,12.90
2022-12-24T04:29:42.555Z,13.52
2022-12-24T04:32:30.590Z,12.63
2022-12-24T04:35:18.086Z,18.15
2022-12-24T04:38:05.401Z,19.52
2022-12-24T04:41:00.564Z,15.20
2022-12-24T04:43:48.419Z,18.90
2022-12-24T04:46:37.280Z,18.25
2022-12-24T04:49:27.670Z,17.67
2022-12-24T04:52:15.263Z,16.83
2022-12-24T04:55:02.828Z,19.27
2022-12-24T04:57:53.094Z,17.80
2022-12-24T05:00:41.733Z,15.10
2022-12-24T05:03:30.474Z,15.75
2022-12-24T05:06:20.408Z,17.33
2022-12-24T05:09:07.906Z,21.03
2022-12-24T05:11:55.150Z,15.50
2022-12-24T05:14:42.539Z,17.15
2022-12-24T05:17:30.017Z,17.88
2022-12-24T05:20:19.275Z,18.27
2022-12-24T05:23:24.070Z,17.30
2022-12-24T05:26:24.023Z,17.88
2022-12-24T05:29:13.438Z,15.02
2022-12-24T05:32:00.679Z,14.13
2022-12-24T05:34:47.988Z,15.82
2022-12-24T05:37:39.286Z,16.37
2022-12-24T05:40:27.099Z,16.80
2022-12-24T05:43:14.570Z,13.32
2022-12-24T05:46:02.390Z,18.02
2022-12-24T05:48:50.577Z,16.27
2022-12-24T05:51:38.037Z,15.90
2022-12-24T05:54:26.911Z,17.83
2022-12-24T05:57:15.919Z,15.23
2022-12-24T06:00:03.560Z,16.27
2022-12-24T06:02:59.899Z,15.35
2022-12-24T06:05:47.188Z,15.17
2022-12-24T06:08:35.835Z,19.27
2022-12-24T06:11:28.302Z,18.02
2022-12-24T06:14:15.607Z,18.63
2022-12-24T06:17:02.821Z,14.68
2022-12-24T06:19:50.139Z,20.30
2022-12-24T06:22:37.543Z,19.60
2022-12-24T06:25:24.904Z,20.75
2022-12-24T06:28:13.767Z,20.83
2022-12-24T06:31:03.584Z,14.98
2022-12-24T06:33:51.958Z,15.80
2022-12-24T06:36:39.359Z,16.70
2022-12-24T06:39:27.072Z,19.00
2022-12-24T06:42:14.470Z,21.67
2022-12-24T06:45:08.160Z,19.33
2022-12-24T06:47:56.073Z,15.90
2022-12-24T06:50:44.265Z,16.23
2022-12-24T06:53:32.349Z,16.67
2022-12-24T06:56:20.898Z,18.45
2022-12-24T06:59:08.189Z,14.10
2022-12-24T07:01:57.237Z,16.47
2022-12-24T07:04:44.940Z,18.13
2022-12-24T07:07:32.244Z,18.73
2022-12-24T07:10:21.773Z,20.48
2022-12-24T07:13:09.081Z,21.42
2022-12-24T07:15:59.987Z,16.77
2022-12-24T07:18:49.106Z,19.13
2022-12-24T07:21:36.618Z,18.10
2022-12-24T07:24:24.155Z,18.85
2022-12-24T07:27:11.671Z,22.27
2022-12-24T07:29:59.069Z,17.50
2022-12-24T07:32:46.234Z,13.98
2022-12-24T07:35:35.465Z,16.75
2022-12-24T07:38:22.916Z,17.65
2022-12-24T07:41:10.271Z,15.07
2022-12-24T07:43:57.942Z,17.17
2022-12-24T07:46:45.645Z,19.20
2022-12-24T07:49:36.567Z,19.48
2022-12-24T07:52:25.666Z,21.00
2022-12-24T07:55:12.829Z,15.30
2022-12-24T07:58:00.551Z,12.63
2022-12-24T08:00:48.018Z,14.50
2022-12-24T08:03:36.066Z,22.30
2022-12-24T08:06:23.737Z,13.60
2022-12-24T08:09:14.395Z,20.02
2022-12-24T08:12:03.691Z,21.47
2022-12-24T08:14:50.901Z,18.65
2022-12-24T08:17:38.641Z,18.20
2022-12-24T08:20:26.517Z,18.20
2022-12-24T08:23:14.476Z,21.23
2022-12-24T08:26:03.950Z,23.13
2022-12-24T08:28:51.955Z,19.77
2022-12-24T08:31:39.696Z,17.85
2022-12-24T08:34:28.517Z,17.15
2022-12-24T08:37:16.247Z,19.65
2022-12-24T08:40:03.953Z,18.93
2022-12-24T08:42:53.033Z,14.45
2022-12-24T08:45:41.476Z,17.13
2022-12-24T08:48:29.246Z,11.65
2022-12-24T08:51:16.840Z,14.27
2022-12-24T08:54:04.716Z,11.57
2022-12-24T08:56:52.425Z,11.35
2022-12-24T08:59:41.605Z,12.32
2022-12-24T09:02:29.266Z,15.60
2022-12-24T09:05:17.017Z,11.43
2022-12-24T09:08:06.626Z,12.33
2022-12-24T09:10:54.495Z,15.73
2022-12-24T09:13:42.675Z,12.60
2022-12-24T09:16:31.556Z,13.45
2022-12-24T09:19:21.902Z,14.95
2022-12-24T09:22:09.605Z,11.10
2022-12-24T09:24:57.508Z,12.32
2022-12-24T09:27:45.315Z,12.80
2022-12-24T09:30:32.686Z,12.27
2022-12-24T09:33:21.887Z,8.65
2022-12-24T09:36:11.811Z,15.00
2022-12-24T09:39:00.107Z,12.60
2022-12-24T09:41:59.899Z,13.38
2022-12-24T09:44:50.968Z,10.93
2022-12-24T09:47:43.062Z,12.35
2022-12-24T09:50:42.087Z,9.93
2022-12-24T09:53:38.599Z,11.07
2022-12-24T09:56:28.679Z,14.95
2022-12-24T09:59:18.942Z,14.23
2022-12-24T10:02:13.012Z,15.98
2022-12-24T10:05:01.156Z,15.47
2022-12-24T10:08:00.489Z,17.65
2022-12-24T10:10:53.440Z,17.70
2022-12-24T10:13:55.502Z,14.43
2022-12-24T10:16:52.590Z,15.00
2022-12-24T10:19:47.774Z,17.33
2022-12-24T10:22:44.831Z,16.02
2022-12-24T10:25:39.709Z,17.55
2022-12-24T10:28:35.759Z,16.65
2022-12-24T10:31:27.613Z,17.15
2022-12-24T10:34:20.942Z,15.03
2022-12-24T10:37:08.298Z,17.20
2022-12-24T10:39:56.546Z,14.32
2022-12-24T10:42:51.110Z,19.02
2022-12-24T10:45:44.018Z,20.10
2022-12-24T10:48:43.466Z,15.97
2022-12-24T10:51:41.915Z,15.48
2022-12-24T10:54:34.595Z,13.38
2022-12-24T10:57:27.486Z,19.05
2022-12-24T11:00:26.987Z,12.77
2022-12-24T11:03:26.722Z,16.70
2022-12-24T11:06:23.584Z,15.25
2022-12-24T11:09:22.194Z,12.00
2022-12-24T11:12:23.364Z,13.75
2022-12-24T11:15:19.285Z,12.57
2022-12-24T11:18:16.139Z,10.57
2022-12-24T11:21:06.071Z,17.23
2022-12-24T11:23:57.135Z,18.75
2022-12-24T11:26:46.276Z,14.50
2022-12-24T11:29:33.713Z,14.43
2022-12-24T11:32:23.416Z,16.40
2022-12-24T11:35:18.453Z,13.35
2022-12-24T11:38:12.843Z,14.32
2022-12-24T11:41:04.258Z,15.98
2022-12-24T11:43:59.172Z,14.45
2022-12-24T11:46:52.412Z,16.17
2022-12-24T11:49:39.835Z,16.77
2022-12-24T11:52:32.165Z,16.55
2022-12-24T11:55:30.715Z,11.90
2022-12-24T11:58:25.853Z,17.10
2022-12-24T12:01:20.451Z,18.80
2022-12-24T12:04:16.105Z,13.27
2022-12-24T12:07:12.787Z,16.25
2022-12-24T12:10:08.652Z,13.32
2022-12-24T12:13:02.552Z,16.35
2022-12-24T12:15:57.217Z,13.87
2022-12-24T12:18:50.914Z,18.55
2022-12-24T12:21:44.884Z,19.13
2022-12-24T12:24:38.842Z,17.77
2022-12-24T12:27:33.414Z,14.35
2022-12-24T12:30:23.320Z,14.87
2022-12-24T12:33:18.446Z,13.38
2022-12-24T12:36:09.832Z,16.60
2022-12-24T12:38:57.427Z,9.90
2022-12-24T12:41:56.417Z,12.75
2022-12-24T12:44:56.485Z,13.73
2022-12-24T12:48:05.755Z,15.00
2022-12-24T12:51:00.026Z,15.68
2022-12-24T12:54:06.420Z,17.75
2022-12-24T12:56:57.128Z,17.45
2022-12-24T12:59:51.576Z,11.73
2022-12-24T13:03:11.044Z,11.02
2022-12-24T13:06:22.153Z,13.35
2022-12-24T13:09:45.034Z,10.80
2022-12-24T13:12:53.403Z,15.15
2022-12-24T13:16:02.925Z,13.40
2022-12-24T13:19:00.304Z,14.52
2022-12-24T13:21:49.129Z,13.50
2022-12-24T13:24:46.533Z,18.98
2022-12-24T13:27:39.184Z,12.63
2022-12-24T13:30:41.713Z,16.17
2022-12-24T13:33:50.164Z,14.25
2022-12-24T13:37:04.462Z,12.60
2022-12-24T13:40:17.378Z,13.63
2022-12-24T13:43:13.962Z,12.02
2022-12-24T13:46:02.257Z,11.90
2022-12-24T13:48:49.674Z,17.83
2022-12-24T13:51:37.476Z,12.90
2022-12-24T13:54:28.745Z,17.42
2022-12-24T13:57:33.944Z,15.65
2022-12-24T14:00:39.296Z,11.97
2022-12-24T14:03:31.972Z,12.93
2022-12-24T14:06:25.824Z,12.30
2022-12-24T14:09:18.844Z,13.27
2022-12-24T14:12:32.365Z,14.40
2022-12-24T14:15:53.534Z,12.30
2022-12-24T14:18:43.407Z,14.35
2022-12-24T14:21:35.978Z,12.75
2022-12-24T14:24:26.999Z,12.30
2022-12-24T14:27:20.232Z,16.13
2022-12-24T14:30:10.533Z,16.87
2022-12-24T14:32:58.427Z,13.05
2022-12-24T14:35:46.224Z,8.70
2022-12-24T14:38:35.264Z,13.50
2022-12-24T14:41:34.096Z,12.35
2022-12-24T14:44:35.609Z,11.47
2022-12-24T14:47:33.538Z,13.40
2022-12-24T14:50:56.684Z,15.50
2022-12-24T14:54:10.555Z,13.13
2022-12-24T14:57:19.606Z,19.13
2022-12-24T15:00:20.645Z,13.57
2022-12-24T15:03:16.654Z,21.05
2022-12-24T15:06:07.725Z,16.48
2022-12-24T15:08:55.632Z,16.65
2022-12-24T15:11:45.755Z,14.80
2022-12-24T15:14:41.640Z,12.90
2022-12-24T15:17:31.009Z,11.45
2022-12-24T15:20:22.190Z,15.27
2022-12-24T15:23:20.249Z,16.55
2022-12-24T15:26:18.186Z,15.40
2022-12-24T15:29:24.716Z,12.27
2022-12-24T15:32:14.964Z,15.73
2022-12-24T15:35:04.243Z,12.15
2022-12-24T15:37:51.722Z,12.98
2022-12-24T15:40:39.698Z,14.05
2022-12-24T15:43:28.773Z,14.07
2022-12-24T15:46:21.707Z,13.82
2022-12-24T15:49:18.901Z,18.25
2022-12-24T15:52:12.102Z,16.13
2022-12-24T15:54:59.567Z,13.23
2022-12-24T15:57:47.133Z,15.93
2022-12-24T16:00:34.819Z,14.25
2022-12-24T16:03:23.658Z,15.02
2022-12-24T16:06:12.656Z,11.63
2022-12-24T16:09:01.659Z,16.55
2022-12-24T16:11:48.943Z,12.97
2022-12-24T16:14:36.518Z,16.67
2022-12-24T16:17:26.517Z,14.63
2022-12-24T16:20:21.782Z,15.98
2022-12-24T16:23:18.980Z,18.10
2022-12-24T16:26:07.855Z,16.17
2022-12-24T16:28:56.816Z,14.07
2022-12-24T16:31:48.462Z,17.02
2022-12-24T16:34:36.281Z,12.05
2022-12-24T16:37:24.138Z,20.98
2022-12-24T16:40:19.291Z,14.83
2022-12-24T16:43:28.957Z,17.27
2022-12-24T16:46:16.599Z,16.00
2022-12-24T16:49:04.256Z,15.60
2022-12-24T16:51:52.138Z,13.02
2022-12-24T16:54:39.467Z,15.33
2022-12-24T16:57:27.589Z,15.13
2022-12-24T17:00:20.723Z,19.20
2022-12-24T17:03:08.841Z,15.05
2022-12-24T17:05:56.382Z,14.38
2022-12-24T17:08:43.856Z,10.67
2022-12-24T17:11:31.519Z,13.77
2022-12-24T17:14:20.897Z,15.02
2022-12-24T17:17:19.305Z,16.80
2022-12-24T17:20:08.530Z,17.23
2022-12-24T17:22:56.480Z,14.37
2022-12-24T17:25:43.795Z,15.32
2022-12-24T17:28:31.335Z,17.90
2022-12-24T17:31:18.879Z,15.35
2022-12-24T17:34:08.963Z,14.38
2022-12-24T17:36:56.621Z,11.43
2022-12-24T17:39:44.210Z,17.63
2022-12-24T17:42:31.699Z,13.25
2022-12-24T17:45:19.461Z,16.60
2022-12-24T17:48:07.464Z,15.57
2022-12-24T17:50:56.449Z,13.47
2022-12-24T17:53:44.443Z,13.15
2022-12-24T17:56:32.254Z,16.55
2022-12-24T17:59:19.807Z,15.02
2022-12-24T18:02:07.468Z,16.73
2022-12-24T18:04:55.296Z,14.37
2022-12-24T18:07:44.503Z,15.70
2022-12-24T18:10:32.063Z,15.23
2022-12-24T18:13:19.822Z,17.80
2022-12-24T18:16:16.044Z,14.02
2022-12-24T18:19:04.816Z,19.90
2022-12-24T18:21:52.647Z,15.40
2022-12-24T18:24:42.102Z,20.90
2022-12-24T18:27:29.941Z,20.30
2022-12-24T18:30:22.893Z,18.30
2022-12-24T18:33:13.420Z,15.03
2022-12-24T18:36:01.307Z,16.88
2022-12-24T18:38:49.588Z,12.48
2022-12-24T18:41:39.025Z,13.75
2022-12-24T18:44:27.067Z,14.05
2022-12-24T18:47:14.854Z,17.67
2022-12-24T18:50:02.949Z,12.85
2022-12-24T18:52:52.132Z,14.85
2022-12-24T18:55:40.326Z,15.15
2022-12-24T18:58:29.696Z,16.02
2022-12-24T19:01:19.960Z,11.97
2022-12-24T19:04:07.729Z,18.95
2022-12-24T19:06:55.401Z,13.82
2022-12-24T19:09:43.031Z,17.77
2022-12-24T19:12:30.460Z,13.85
2022-12-24T19:15:19.725Z,14.13
2022-12-24T19:18:07.095Z,15.82
2022-12-24T19:20:54.830Z,15.38
2022-12-24T19:23:42.429Z,21.15
2022-12-24T19:26:29.927Z,21.90
2022-12-24T19:29:17.780Z,12.40
2022-12-24T19:32:07.084Z,14.93
2022-12-24T19:34:55.120Z,12.38
2022-12-24T19:37:42.510Z,12.20
2022-12-24T19:40:30.475Z,15.43
2022-12-24T19:43:17.916Z,13.67
2022-12-24T19:46:05.919Z,19.88
2022-12-24T19:48:56.710Z,17.40
2022-12-24T19:51:44.355Z,21.00
2022-12-24T19:54:31.994Z,18.23
2022-12-24T19:57:19.281Z,13.37
2022-12-24T20:00:09.394Z,14.75
2022-12-24T20:03:00.319Z,13.48
2022-12-24T20:05:49.798Z,15.68
2022-12-24T20:08:37.521Z,16.70
2022-12-24T20:11:25.223Z,18.20
2022-12-24T20:14:13.476Z,22.17
2022-12-24T20:17:01.250Z,20.30
2022-12-24T20:19:49.003Z,23.42
2022-12-24T20:22:38.552Z,19.30
2022-12-24T20:25:26.257Z,22.93
2022-12-24T20:28:13.850Z,25.95
2022-12-24T20:31:02.895Z,19.15
2022-12-24T20:33:51.298Z,18.17
2022-12-24T20:36:40.897Z,20.02
2022-12-24T20:39:30.066Z,19.50
2022-12-24T20:42:17.443Z,18.33
2022-12-24T20:45:06.117Z,20.77
2022-12-24T20:47:53.954Z,19.02
2022-12-24T20:50:42.826Z,19.85
2022-12-24T20:53:30.337Z,14.30
2022-12-24T20:56:20.291Z,16.38
2022-12-24T20:59:08.327Z,16.33
2022-12-24T21:01:56.349Z,18.52
2022-12-24T21:04:48.229Z,13.80
2022-12-24T21:07:36.058Z,16.27
2022-12-24T21:10:29.022Z,14.18
2022-12-24T21:13:20.414Z,19.55
2022-12-24T21:16:08.496Z,13.63
2022-12-24T21:18:56.524Z,18.00
2022-12-24T21:21:45.252Z,15.87
2022-12-24T21:24:32.985Z,17.08
2022-12-24T21:27:20.346Z,15.88
2022-12-24T21:30:11.206Z,20.63
2022-12-24T21:32:58.719Z,21.50
2022-12-24T21:35:46.201Z,22.87
2022-12-24T21:38:34.313Z,22.85
2022-12-24T21:41:23.858Z,18.58
2022-12-24T21:44:11.725Z,24.67
2022-12-24T21:47:00.959Z,19.17
2022-12-24T21:50:05.822Z,22.50
2022-12-24T21:53:13.134Z,18.88
2022-12-24T21:55:59.438Z,21.13
2022-12-24T21:58:47.112Z,19.73
2022-12-24T22:01:34.904Z,20.25
2022-12-24T22:04:24.068Z,19.97
2022-12-24T22:07:40.941Z,18.98
2022-12-24T22:10:46.376Z,18.48
2022-12-24T22:13:34.391Z,19.08
2022-12-24T22:16:21.761Z,16.05
2022-12-24T22:19:09.743Z,15.90
2022-12-24T22:21:58.995Z,18.08
2022-12-24T22:24:46.489Z,18.17
2022-12-24T22:27:33.874Z,17.42
2022-12-24T22:30:21.515Z,17.63
2022-12-24T22:33:10.430Z,17.80
2022-12-24T22:35:58.149Z,15.27
2022-12-24T22:38:47.496Z,12.88
2022-12-24T22:41:35.346Z,17.55
2022-12-24T22:44:22.975Z,15.35
2022-12-24T22:47:10.656Z,14.20
2022-12-24T22:49:58.092Z,16.70
2022-12-24T22:52:45.433Z,13.10
2022-12-24T22:55:34.588Z,14.60
2022-12-24T22:58:22.173Z,16.40
2022-12-24T23:01:10.451Z,15.73
2022-12-24T23:03:58.256Z,13.40
2022-12-24T23:06:46.004Z,13.73
2022-12-24T23:09:34.158Z,12.43
2022-12-24T23:12:42.874Z,16.85
2022-12-24T23:15:29.540Z,14.83
2022-12-24T23:18:17.664Z,13.45
2022-12-24T23:21:07.516Z,15.40
2022-12-24T23:23:55.572Z,16.80
2022-12-24T23:26:43.476Z,15.77
2022-12-24T23:29:34.054Z,12.47
2022-12-24T23:32:21.766Z,19.10
2022-12-24T23:35:10.364Z,16.50
2022-12-24T23:37:57.832Z,11.55
2022-12-24T23:40:45.167Z,15.48
2022-12-24T23:43:36.098Z,14.40
2022-12-24T23:46:25.481Z,14.20
2022-12-24T23:49:15.187Z,15.27
2022-12-24T23:52:03.075Z,13.52
2022-12-24T23:54:50.541Z,14.32
2022-12-24T23:57:38.086Z,17.23
